Aérodrome :
LOGIN :

S'inscrire | Disclaimer

   EN    FR    IT 

 










Légende :    VFR   VFR Marginal   IFR   IFR Intensif   IFR Très Intensif
Visi : 
Plafond : 
>= 8 km
>= 3000ft
5 à 8 km
1000 à 3000 ft
1500m à 5 km
500 à 1000 ft
800 à 1500m
200 à 500 ft
< 800m
< 200 ft
Symboles :   Orages  Brouillard  Fortes neiges  Fortes précipitations  Vent > 20 kt
SIGMETs :   Divers  Orages  Givrage  Turbulence  Onde Orograph.  Cendres Volcan.







- Altitude de l'aérodrome : 614 ft
- Code IATA : CRL


EBCI - Charleroi

DERNIER METAR :
  • 191050Z 15007KT CAVOK 17/11 Q1010 NOSIG

METARs EXPIRÉS :
  • 191020Z 16009KT CAVOK 17/11 Q1010 NOSIG
  • 190950Z 15009KT CAVOK 17/11 Q1010 NOSIG
  • 190920Z 16010KT CAVOK 17/11 Q1011 NOSIG
  • 190850Z 15008KT CAVOK 16/11 Q1010 NOSIG
  • 190820Z 17008KT 140V210 CAVOK 14/11 Q1011 NOSIG

TAF TAF EBCI
Valide du 19 à 06h jusqu'au 20 à 12h UTC


190510Z 1906/2012 17008KT CAVOK
PROB30
TEMPO 1914/1922 17015G25KT
PROB40
TEMPO 1922/2000 18015G25KT SHRA
TEMPO 2000/2005 18015G25KT 4000 RA SCT008 BKN012
BECMG 2005/2007 23013KT
Pas de NOTAMs connus pour ce terrain.



MET'MAP, la Météo Aéronautique d'un coup d'oeil ! - Copyright ORBIFLY Décembre 2007 - Disclaimer

ORBIFLY MET'MAP TEAM :

Programmation & Développement : Alexandra Zaïnal
Conception & Développement : Baudouin d'Aumeries
Co-Programmation & Développement : Marc-Olivier Méhu
Soutien technique & logistique : Manuel Goepfert

Contact : metmap@orbifly.com




SOURCES & CREDITS :

   NOAA